createdAt,value
2023-04-23T00:01:09.520Z,100.00
2023-04-23T00:03:41.501Z,100.00
2023-04-23T00:06:13.122Z,100.00
2023-04-23T00:08:43.707Z,100.00
2023-04-23T00:11:16.553Z,100.00
2023-04-23T00:13:47.550Z,100.00
2023-04-23T00:16:17.996Z,100.00
2023-04-23T00:18:47.939Z,100.00
2023-04-23T00:21:17.672Z,100.00
2023-04-23T00:23:47.403Z,100.00
2023-04-23T00:26:20.325Z,100.00
2023-04-23T00:28:50.085Z,100.00
2023-04-23T00:31:19.794Z,100.00
2023-04-23T00:33:49.460Z,100.00
2023-04-23T00:36:20.119Z,100.00
2023-04-23T00:38:49.905Z,100.00
2023-04-23T00:41:22.451Z,100.00
2023-04-23T00:43:53.102Z,100.00
2023-04-23T00:46:23.291Z,100.00
2023-04-23T00:48:53.925Z,100.00
2023-04-23T00:51:24.641Z,100.00
2023-04-23T00:53:54.784Z,100.00
2023-04-23T00:56:28.081Z,100.00
2023-04-23T00:58:58.270Z,100.00
2023-04-23T01:01:28.573Z,100.00
2023-04-23T01:03:58.470Z,100.00
2023-04-23T01:06:30.137Z,100.00
2023-04-23T01:08:59.991Z,100.00
2023-04-23T01:11:32.622Z,100.00
2023-04-23T01:14:02.492Z,100.00
2023-04-23T01:16:32.265Z,100.00
2023-04-23T01:19:02.341Z,100.00
2023-04-23T01:21:33.692Z,100.00
2023-04-23T01:24:06.130Z,100.00
2023-04-23T01:26:36.582Z,100.00
2023-04-23T01:29:06.531Z,100.00
2023-04-23T01:31:36.301Z,100.00
2023-04-23T01:34:06.181Z,100.00
2023-04-23T01:36:36.202Z,100.00
2023-04-23T01:39:09.177Z,100.00
2023-04-23T01:41:39.156Z,100.00
2023-04-23T01:44:08.973Z,100.00
2023-04-23T01:46:38.762Z,100.00
2023-04-23T01:49:08.606Z,100.00
2023-04-23T01:51:38.404Z,100.00
2023-04-23T01:54:10.755Z,100.00
2023-04-23T01:56:40.601Z,100.00
2023-04-23T01:59:10.283Z,100.00
2023-04-23T02:01:48.120Z,100.00
2023-04-23T02:04:18.577Z,100.00
2023-04-23T02:06:54.025Z,100.00
2023-04-23T02:09:26.897Z,100.00
2023-04-23T02:11:57.859Z,100.00
2023-04-23T02:14:27.572Z,100.00
2023-04-23T02:16:57.904Z,100.00
2023-04-23T02:19:28.036Z,100.00
2023-04-23T02:21:58.224Z,100.00
2023-04-23T02:24:30.611Z,100.00
2023-04-23T02:27:00.602Z,100.00
2023-04-23T02:29:30.397Z,100.00
2023-04-23T02:32:00.293Z,100.00
2023-04-23T02:34:30.108Z,100.00
2023-04-23T02:36:59.817Z,100.00
2023-04-23T02:39:32.154Z,100.00
2023-04-23T02:42:02.410Z,100.00
2023-04-23T02:44:32.170Z,100.00
2023-04-23T02:47:01.928Z,100.00
2023-04-23T02:49:31.762Z,100.00
2023-04-23T02:52:01.674Z,100.00
2023-04-23T02:54:34.506Z,100.00
2023-04-23T02:57:04.469Z,100.00
2023-04-23T02:59:34.370Z,100.00
2023-04-23T03:02:04.617Z,100.00
2023-04-23T03:04:34.469Z,100.00
2023-04-23T03:07:04.189Z,100.00
2023-04-23T03:09:38.232Z,100.00
2023-04-23T03:12:08.210Z,100.00
2023-04-23T03:14:38.469Z,100.00
2023-04-23T03:17:08.315Z,100.00
2023-04-23T03:19:38.077Z,100.00
2023-04-23T03:22:08.384Z,100.00
2023-04-23T03:24:40.987Z,100.00
2023-04-23T03:27:11.957Z,100.00
2023-04-23T03:29:42.013Z,100.00
2023-04-23T03:32:11.856Z,100.00
2023-04-23T03:34:42.174Z,100.00
2023-04-23T03:37:12.103Z,100.00
2023-04-23T03:39:44.885Z,100.00
2023-04-23T03:42:15.123Z,100.00
2023-04-23T03:44:45.322Z,100.00
2023-04-23T03:47:15.024Z,100.00
2023-04-23T03:49:44.664Z,100.00
2023-04-23T03:52:14.412Z,100.00
2023-04-23T03:54:47.520Z,100.00
2023-04-23T03:57:20.400Z,100.00
2023-04-23T03:59:59.420Z,100.00
2023-04-23T04:02:29.494Z,100.00
2023-04-23T04:04:59.598Z,100.00
2023-04-23T04:07:29.770Z,100.00
2023-04-23T04:10:03.290Z,100.00
2023-04-23T04:12:32.994Z,100.00
2023-04-23T04:15:03.368Z,100.00
2023-04-23T04:17:33.339Z,100.00
2023-04-23T04:20:03.151Z,100.00
2023-04-23T04:22:32.932Z,100.00
2023-04-23T04:25:05.383Z,100.00
2023-04-23T04:27:36.062Z,100.00
2023-04-23T04:30:06.203Z,100.00
2023-04-23T04:32:35.981Z,100.00
2023-04-23T04:35:05.671Z,100.00
2023-04-23T04:37:35.541Z,100.00
2023-04-23T04:40:11.589Z,100.00
2023-04-23T04:42:42.829Z,100.00
2023-04-23T04:45:13.479Z,100.00
2023-04-23T04:47:43.192Z,100.00
2023-04-23T04:50:14.129Z,100.00
2023-04-23T04:52:43.833Z,100.00
2023-04-23T04:55:16.163Z,100.00
2023-04-23T04:57:45.896Z,100.00
2023-04-23T05:00:23.415Z,100.00
2023-04-23T05:02:53.538Z,100.00
2023-04-23T05:05:27.512Z,100.00
2023-04-23T05:07:59.375Z,100.00
2023-04-23T05:10:32.468Z,100.00
2023-04-23T05:13:03.056Z,100.00
2023-04-23T05:15:32.875Z,100.00
2023-04-23T05:18:02.725Z,100.00
2023-04-23T05:20:32.492Z,100.00
2023-04-23T05:23:02.948Z,100.00
2023-04-23T05:25:35.810Z,100.00
2023-04-23T05:28:05.646Z,100.00
2023-04-23T05:30:36.064Z,100.00
2023-04-23T05:33:05.868Z,100.00
2023-04-23T05:35:35.843Z,100.00
2023-04-23T05:38:06.548Z,100.00
2023-04-23T05:40:38.881Z,100.00
2023-04-23T05:43:08.926Z,100.00
2023-04-23T05:45:38.706Z,100.00
2023-04-23T05:48:08.428Z,100.00
2023-04-23T05:50:38.107Z,100.00
2023-04-23T05:53:07.777Z,100.00
2023-04-23T05:55:40.021Z,100.00
2023-04-23T05:58:09.951Z,100.00
2023-04-23T06:00:40.961Z,100.00
2023-04-23T06:03:11.110Z,100.00
2023-04-23T06:05:43.299Z,100.00
2023-04-23T06:08:13.133Z,100.00
2023-04-23T06:10:45.482Z,100.00
2023-04-23T06:13:15.303Z,100.00
2023-04-23T06:15:44.943Z,100.00
2023-04-23T06:18:14.796Z,100.00
2023-04-23T06:20:46.066Z,100.00
2023-04-23T06:23:16.730Z,100.00
2023-04-23T06:25:49.955Z,100.00
2023-04-23T06:28:21.077Z,100.00
2023-04-23T06:31:15.067Z,100.00
2023-04-23T06:33:45.776Z,100.00
2023-04-23T06:36:16.922Z,100.00
2023-04-23T06:38:47.773Z,100.00
2023-04-23T06:41:21.603Z,100.00
2023-04-23T06:44:03.878Z,100.00
2023-04-23T06:46:39.160Z,100.00
2023-04-23T06:49:09.881Z,100.00
2023-04-23T06:51:40.411Z,100.00
2023-04-23T06:54:11.157Z,100.00
2023-04-23T06:56:44.202Z,100.00
2023-04-23T06:59:14.839Z,100.00
2023-04-23T07:01:50.550Z,100.00
2023-04-23T07:04:21.349Z,100.00
2023-04-23T07:06:52.536Z,100.00
2023-04-23T07:09:23.505Z,100.00
2023-04-23T07:11:56.669Z,100.00
2023-04-23T07:14:28.514Z,100.00
2023-04-23T07:16:59.613Z,100.00
2023-04-23T07:19:30.399Z,100.00
2023-04-23T07:22:01.857Z,100.00
2023-04-23T07:24:32.754Z,100.00
2023-04-23T07:27:06.402Z,100.00
2023-04-23T07:29:37.728Z,100.00
2023-04-23T07:32:08.650Z,100.00
2023-04-23T07:34:40.022Z,100.00
2023-04-23T07:37:11.496Z,100.00
2023-04-23T07:39:44.195Z,100.00
2023-04-23T07:42:18.466Z,100.00
2023-04-23T07:44:49.260Z,100.00
2023-04-23T07:47:19.900Z,100.00
2023-04-23T07:49:51.055Z,100.00
2023-04-23T07:52:21.603Z,100.00
2023-04-23T07:54:52.772Z,100.00
2023-04-23T07:57:26.213Z,100.00
2023-04-23T07:59:56.983Z,100.00
2023-04-23T08:05:55.203Z,100.00
2023-04-23T08:08:26.019Z,100.00
2023-04-23T08:10:55.951Z,100.00
2023-04-23T08:13:28.911Z,100.00
2023-04-23T08:15:58.860Z,100.00
2023-04-23T08:18:28.646Z,100.00
2023-04-23T08:20:59.600Z,100.00
2023-04-23T08:23:29.434Z,100.00
2023-04-23T08:25:59.283Z,100.00
2023-04-23T08:28:31.653Z,100.00
2023-04-23T08:31:03.928Z,100.00
2023-04-23T08:33:39.179Z,100.00
2023-04-23T08:36:09.321Z,100.00
2023-04-23T08:38:39.026Z,100.00
2023-04-23T08:41:09.710Z,100.00
2023-04-23T08:43:48.152Z,100.00
2023-04-23T08:46:18.895Z,100.00
2023-04-23T08:48:49.266Z,100.00
2023-04-23T08:51:21.686Z,100.00
2023-04-23T08:53:54.639Z,100.00
2023-04-23T08:56:24.500Z,100.00
2023-04-23T08:58:57.182Z,100.00
2023-04-23T09:01:27.334Z,100.00
2023-04-23T09:03:57.335Z,100.00
2023-04-23T09:06:27.280Z,100.00
2023-04-23T09:08:58.417Z,100.00
2023-04-23T09:11:30.379Z,100.00
2023-04-23T09:14:02.748Z,100.00
2023-04-23T09:16:32.556Z,100.00
2023-04-23T09:19:02.300Z,100.00
2023-04-23T09:21:32.027Z,100.00
2023-04-23T09:24:01.998Z,100.00
2023-04-23T09:26:31.616Z,100.00
2023-04-23T09:29:03.909Z,100.00
2023-04-23T09:31:33.663Z,100.00
2023-04-23T09:34:03.414Z,100.00
2023-04-23T09:36:36.397Z,100.00
2023-04-23T09:39:06.330Z,100.00
2023-04-23T09:41:36.037Z,100.00
2023-04-23T09:44:08.977Z,100.00
2023-04-23T09:46:40.051Z,100.00
2023-04-23T09:49:10.945Z,100.00
2023-04-23T09:51:41.018Z,100.00
2023-04-23T09:54:15.049Z,100.00
2023-04-23T09:56:45.429Z,100.00
2023-04-23T09:59:45.946Z,100.00
2023-04-23T10:02:17.861Z,100.00
2023-04-23T10:04:48.235Z,100.00
2023-04-23T10:07:20.426Z,100.00
2023-04-23T10:09:50.876Z,100.00
2023-04-23T10:12:41.168Z,100.00
2023-04-23T10:15:14.256Z,100.00
2023-04-23T10:17:44.378Z,100.00
2023-04-23T10:20:15.001Z,100.00
2023-04-23T10:22:48.150Z,100.00
2023-04-23T10:25:18.382Z,100.00
2023-04-23T10:27:52.659Z,100.00
2023-04-23T10:30:26.497Z,100.00
2023-04-23T10:32:57.188Z,100.00
2023-04-23T10:35:27.522Z,100.00
2023-04-23T10:37:57.207Z,100.00
2023-04-23T10:40:29.524Z,100.00
2023-04-23T10:42:59.362Z,100.00
2023-04-23T10:45:33.808Z,100.00
2023-04-23T10:48:04.569Z,100.00
2023-04-23T10:50:47.691Z,100.00
2023-04-23T10:53:28.008Z,100.00
2023-04-23T10:56:09.512Z,100.00
2023-04-23T10:58:52.463Z,100.00
2023-04-23T11:01:27.598Z,100.00
2023-04-23T11:03:57.509Z,100.00
2023-04-23T11:06:55.259Z,100.00
2023-04-23T11:09:32.439Z,100.00
2023-04-23T11:12:02.766Z,100.00
2023-04-23T11:14:40.231Z,100.00
2023-04-23T11:17:14.723Z,100.00
2023-04-23T11:19:45.546Z,100.00
2023-04-23T11:22:20.690Z,100.00
2023-04-23T11:24:51.022Z,100.00
2023-04-23T11:27:21.777Z,100.00
2023-04-23T11:29:51.482Z,100.00
2023-04-23T11:32:24.796Z,100.00
2023-04-23T11:34:54.766Z,100.00
2023-04-23T11:37:24.463Z,100.00
2023-04-23T11:39:54.172Z,100.00
2023-04-23T11:42:23.882Z,100.00
2023-04-23T11:44:53.717Z,100.00
2023-04-23T11:47:28.973Z,100.00
2023-04-23T11:49:58.737Z,100.00
2023-04-23T11:52:29.725Z,100.00
2023-04-23T11:54:59.502Z,100.00
2023-04-23T11:57:29.185Z,100.00
2023-04-23T11:59:58.876Z,100.00
2023-04-23T12:02:31.399Z,100.00
2023-04-23T12:05:10.250Z,100.00
2023-04-23T12:07:40.079Z,100.00
2023-04-23T12:10:10.686Z,100.00
2023-04-23T12:12:40.815Z,100.00
2023-04-23T12:15:11.837Z,100.00
2023-04-23T12:17:44.318Z,100.00
2023-04-23T12:20:20.007Z,100.00
2023-04-23T12:22:50.320Z,100.00
2023-04-23T12:25:20.022Z,100.00
2023-04-23T12:27:49.715Z,100.00
2023-04-23T12:30:19.470Z,100.00
2023-04-23T12:32:51.879Z,100.00
2023-04-23T12:35:22.679Z,100.00
2023-04-23T12:37:53.148Z,100.00
2023-04-23T12:40:23.031Z,100.00
2023-04-23T12:42:52.718Z,100.00
2023-04-23T12:45:22.475Z,100.00
2023-04-23T12:47:54.768Z,100.00
2023-04-23T12:50:24.590Z,100.00
2023-04-23T12:52:54.280Z,100.00
2023-04-23T12:55:24.100Z,100.00
2023-04-23T12:57:53.833Z,100.00
2023-04-23T13:00:23.680Z,98.85
2023-04-23T13:02:56.502Z,93.66
2023-04-23T13:05:26.475Z,96.01
2023-04-23T13:07:57.027Z,95.00
2023-04-23T13:10:26.948Z,91.66
2023-04-23T13:12:56.698Z,92.76
2023-04-23T13:15:27.160Z,93.90
2023-04-23T13:17:59.803Z,91.63
2023-04-23T13:20:30.057Z,95.35
2023-04-23T13:22:59.790Z,100.00
2023-04-23T13:25:29.437Z,100.00
2023-04-23T13:27:59.256Z,100.00
2023-04-23T13:30:28.951Z,100.00
2023-04-23T13:33:01.611Z,100.00
2023-04-23T13:35:31.547Z,100.00
2023-04-23T13:38:02.179Z,100.00
2023-04-23T13:40:31.911Z,100.00
2023-04-23T13:43:01.642Z,98.42
2023-04-23T13:45:31.419Z,94.89
2023-04-23T13:48:05.190Z,95.70
2023-04-23T13:50:35.182Z,94.86
2023-04-23T13:53:05.090Z,91.25
2023-04-23T13:55:34.772Z,89.80
2023-04-23T13:58:04.509Z,89.70
2023-04-23T14:00:34.332Z,87.12
2023-04-23T14:03:06.881Z,88.39
2023-04-23T14:05:36.905Z,90.88
2023-04-23T14:08:06.634Z,91.04
2023-04-23T14:10:36.887Z,91.95
2023-04-23T14:13:06.975Z,93.55
2023-04-23T14:15:36.750Z,93.39
2023-04-23T14:18:09.148Z,90.59
2023-04-23T14:20:39.054Z,90.44
2023-04-23T14:23:36.845Z,88.40
2023-04-23T14:26:07.905Z,85.68
2023-04-23T14:28:42.145Z,85.03
2023-04-23T14:31:11.922Z,87.70
2023-04-23T14:33:44.278Z,90.83
2023-04-23T14:36:14.000Z,89.97
2023-04-23T14:38:43.843Z,89.78
2023-04-23T14:41:13.541Z,90.87
2023-04-23T14:43:43.213Z,93.01
2023-04-23T14:46:13.239Z,94.36
2023-04-23T14:48:46.124Z,99.72
2023-04-23T14:51:16.187Z,96.43
2023-04-23T14:53:45.885Z,92.78
2023-04-23T14:56:15.631Z,89.68
2023-04-23T14:58:45.361Z,88.46
2023-04-23T15:01:15.068Z,89.13
2023-04-23T15:03:47.836Z,91.04
2023-04-23T15:06:17.623Z,89.57
2023-04-23T15:08:47.346Z,86.60
2023-04-23T15:11:17.143Z,87.46
2023-04-23T15:13:55.805Z,85.14
2023-04-23T15:19:10.230Z,88.39
2023-04-23T15:21:42.543Z,95.83
2023-04-23T15:24:12.972Z,100.00
2023-04-23T15:26:42.890Z,100.00
2023-04-23T15:29:13.802Z,100.00
2023-04-23T15:31:43.957Z,100.00
2023-04-23T15:34:16.312Z,100.00
2023-04-23T15:36:46.349Z,100.00
2023-04-23T15:39:16.013Z,100.00
2023-04-23T15:41:46.451Z,100.00
2023-04-23T15:44:16.214Z,100.00
2023-04-23T15:46:46.349Z,100.00
2023-04-23T15:49:18.611Z,100.00
2023-04-23T15:51:48.371Z,100.00
2023-04-23T15:54:18.156Z,100.00
2023-04-23T15:56:47.852Z,100.00
2023-04-23T15:59:17.516Z,100.00
2023-04-23T16:01:47.262Z,100.00
2023-04-23T16:04:19.931Z,100.00
2023-04-23T16:06:49.836Z,100.00
2023-04-23T16:09:19.508Z,100.00
2023-04-23T16:11:49.319Z,100.00
2023-04-23T16:14:18.997Z,100.00
2023-04-23T16:16:48.741Z,100.00
2023-04-23T16:19:20.976Z,100.00
2023-04-23T16:21:51.023Z,100.00
2023-04-23T16:24:22.358Z,100.00
2023-04-23T16:26:52.772Z,100.00
2023-04-23T16:29:23.156Z,100.00
2023-04-23T16:31:53.167Z,100.00
2023-04-23T16:34:25.442Z,100.00
2023-04-23T16:36:55.335Z,100.00
2023-04-23T16:39:25.184Z,100.00
2023-04-23T16:41:54.901Z,100.00
2023-04-23T16:44:24.849Z,100.00
2023-04-23T16:46:56.803Z,100.00
2023-04-23T16:49:29.219Z,100.00
2023-04-23T16:51:59.247Z,100.00
2023-04-23T16:54:29.251Z,100.00
2023-04-23T16:56:59.015Z,100.00
2023-04-23T16:59:28.894Z,100.00
2023-04-23T17:01:58.628Z,100.00
2023-04-23T17:04:31.254Z,100.00
2023-04-23T17:07:01.375Z,100.00
2023-04-23T17:09:31.893Z,100.00
2023-04-23T17:12:02.618Z,100.00
2023-04-23T17:14:32.415Z,100.00
2023-04-23T17:17:02.156Z,100.00
2023-04-23T17:19:35.317Z,100.00
2023-04-23T17:22:06.411Z,100.00
2023-04-23T17:24:37.766Z,100.00
2023-04-23T17:27:09.120Z,100.00
2023-04-23T17:29:39.002Z,100.00
2023-04-23T17:32:09.244Z,100.00
2023-04-23T17:34:42.978Z,100.00
2023-04-23T17:37:12.930Z,100.00
2023-04-23T17:39:43.111Z,100.00
2023-04-23T17:42:13.688Z,100.00
2023-04-23T17:44:43.830Z,100.00
2023-04-23T17:47:14.268Z,100.00
2023-04-23T17:49:46.586Z,100.00
2023-04-23T17:52:16.319Z,100.00
2023-04-23T17:54:46.207Z,100.00
2023-04-23T17:57:16.540Z,100.00
2023-04-23T17:59:46.280Z,100.00
2023-04-23T18:02:16.319Z,100.00
2023-04-23T18:04:48.703Z,100.00
2023-04-23T18:07:18.413Z,100.00
2023-04-23T18:09:48.394Z,100.00
2023-04-23T18:12:18.705Z,100.00
2023-04-23T18:14:48.434Z,100.00
2023-04-23T18:17:19.237Z,100.00
2023-04-23T18:22:48.295Z,100.00
2023-04-23T18:25:18.105Z,100.00
2023-04-23T18:27:47.821Z,100.00
2023-04-23T18:30:23.195Z,100.00
2023-04-23T18:32:58.690Z,100.00
2023-04-23T18:35:32.082Z,100.00
2023-04-23T18:38:07.869Z,100.00
2023-04-23T18:40:37.745Z,100.00
2023-04-23T18:43:07.504Z,100.00
2023-04-23T18:45:37.586Z,100.00
2023-04-23T18:48:41.749Z,100.00
2023-04-23T18:51:23.535Z,100.00
2023-04-23T18:53:53.662Z,100.00
2023-04-23T18:56:25.271Z,100.00
2023-04-23T18:58:55.744Z,100.00
2023-04-23T19:01:28.090Z,100.00
2023-04-23T19:03:59.636Z,100.00
2023-04-23T19:06:35.402Z,100.00
2023-04-23T19:09:05.719Z,100.00
2023-04-23T19:11:38.286Z,100.00
2023-04-23T19:14:08.235Z,100.00
2023-04-23T19:16:38.404Z,100.00
2023-04-23T19:19:08.370Z,100.00
2023-04-23T19:21:41.184Z,100.00
2023-04-23T19:24:11.474Z,100.00
2023-04-23T19:26:41.497Z,100.00
2023-04-23T19:29:11.630Z,100.00
2023-04-23T19:31:42.152Z,100.00
2023-04-23T19:34:16.557Z,100.00
2023-04-23T19:36:49.064Z,100.00
2023-04-23T19:39:19.117Z,100.00
2023-04-23T19:41:48.936Z,100.00
2023-04-23T19:44:18.680Z,100.00
2023-04-23T19:46:48.476Z,100.00
2023-04-23T19:49:18.200Z,100.00
2023-04-23T19:51:50.899Z,100.00
2023-04-23T19:54:22.213Z,100.00
2023-04-23T19:56:53.250Z,100.00
2023-04-23T19:59:23.969Z,100.00
2023-04-23T20:01:54.253Z,100.00
2023-04-23T20:04:24.076Z,100.00
2023-04-23T20:06:56.576Z,100.00
2023-04-23T20:09:26.330Z,100.00
2023-04-23T20:11:56.085Z,100.00
2023-04-23T20:14:25.918Z,100.00
2023-04-23T20:16:55.805Z,100.00
2023-04-23T20:19:26.050Z,100.00
2023-04-23T20:21:58.562Z,100.00
2023-04-23T20:24:28.482Z,100.00
2023-04-23T20:26:58.774Z,100.00
2023-04-23T20:29:28.465Z,100.00
2023-04-23T20:31:58.234Z,100.00
2023-04-23T20:34:27.952Z,100.00
2023-04-23T20:37:00.367Z,100.00
2023-04-23T20:39:30.318Z,100.00
2023-04-23T20:42:01.083Z,100.00
2023-04-23T20:44:30.859Z,100.00
2023-04-23T20:47:04.538Z,100.00
2023-04-23T20:49:34.876Z,100.00
2023-04-23T20:52:07.280Z,100.00
2023-04-23T20:54:37.442Z,100.00
2023-04-23T20:57:07.240Z,100.00
2023-04-23T20:59:36.959Z,100.00
2023-04-23T21:02:07.452Z,100.00
2023-04-23T21:04:37.506Z,100.00
2023-04-23T21:07:10.089Z,100.00
2023-04-23T21:09:40.177Z,100.00
2023-04-23T21:12:10.151Z,100.00
2023-04-23T21:14:39.870Z,100.00
2023-04-23T21:17:09.626Z,100.00
2023-04-23T21:19:39.338Z,100.00
2023-04-23T21:22:11.796Z,100.00
2023-04-23T21:24:41.550Z,100.00
2023-04-23T21:27:11.477Z,100.00
2023-04-23T21:29:41.684Z,100.00
2023-04-23T21:32:11.565Z,100.00
2023-04-23T21:34:41.268Z,100.00
2023-04-23T21:37:13.573Z,100.00
2023-04-23T21:39:43.584Z,100.00
2023-04-23T21:42:13.558Z,100.00
2023-04-23T21:44:43.360Z,100.00
2023-04-23T21:47:13.344Z,100.00
2023-04-23T21:49:43.659Z,100.00
2023-04-23T21:52:17.527Z,100.00
2023-04-23T21:54:47.343Z,100.00
2023-04-23T21:57:17.106Z,100.00
2023-04-23T21:59:46.887Z,100.00
2023-04-23T22:02:16.650Z,100.00
2023-04-23T22:04:46.756Z,100.00
2023-04-23T22:07:19.766Z,100.00
2023-04-23T22:09:49.647Z,100.00
2023-04-23T22:12:19.322Z,100.00
2023-04-23T22:14:49.012Z,100.00
2023-04-23T22:17:18.887Z,100.00
2023-04-23T22:19:49.195Z,100.00
2023-04-23T22:22:21.521Z,100.00
2023-04-23T22:24:51.452Z,100.00
2023-04-23T22:27:23.313Z,100.00
2023-04-23T22:29:53.048Z,100.00
2023-04-23T22:32:22.793Z,100.00
2023-04-23T22:34:52.965Z,100.00
2023-04-23T22:37:25.521Z,100.00
2023-04-23T22:39:55.271Z,100.00
2023-04-23T22:42:24.984Z,100.00
2023-04-23T22:44:54.700Z,100.00
2023-04-23T22:47:24.496Z,100.00
2023-04-23T22:49:54.348Z,100.00
2023-04-23T22:52:27.043Z,100.00
2023-04-23T22:54:57.530Z,100.00
2023-04-23T22:57:27.363Z,100.00
2023-04-23T22:59:57.022Z,100.00
2023-04-23T23:02:26.998Z,100.00
2023-04-23T23:04:56.833Z,100.00
2023-04-23T23:07:29.168Z,100.00
2023-04-23T23:09:58.930Z,100.00
2023-04-23T23:12:28.636Z,100.00
2023-04-23T23:14:58.440Z,100.00
2023-04-23T23:17:28.647Z,100.00
2023-04-23T23:19:58.363Z,100.00
2023-04-23T23:22:31.043Z,100.00
2023-04-23T23:25:00.827Z,100.00
2023-04-23T23:27:30.601Z,100.00
2023-04-23T23:30:05.764Z,100.00
2023-04-23T23:32:35.800Z,100.00
2023-04-23T23:35:06.576Z,100.00
2023-04-23T23:37:39.254Z,100.00
2023-04-23T23:40:11.105Z,100.00
2023-04-23T23:42:41.004Z,100.00
2023-04-23T23:45:11.989Z,100.00
2023-04-23T23:47:41.756Z,100.00
2023-04-23T23:50:12.691Z,100.00
2023-04-23T23:52:45.154Z,100.00
2023-04-23T23:55:14.902Z,100.00
2023-04-23T23:57:44.654Z,100.00
